createdAt,value
2022-11-20T00:01:28.265Z,2.50
2022-11-20T00:03:30.320Z,2.70
2022-11-20T00:05:34.087Z,2.38
2022-11-20T00:07:35.865Z,2.15
2022-11-20T00:09:37.672Z,2.37
2022-11-20T00:11:39.416Z,2.22
2022-11-20T00:13:41.211Z,2.30
2022-11-20T00:15:42.928Z,2.47
2022-11-20T00:17:44.609Z,2.45
2022-11-20T00:19:46.325Z,2.40
2022-11-20T00:21:48.088Z,2.55
2022-11-20T00:23:50.978Z,2.27
2022-11-20T00:25:52.704Z,2.17
2022-11-20T00:27:54.422Z,2.47
2022-11-20T00:29:56.592Z,2.80
2022-11-20T00:31:58.278Z,2.58
2022-11-20T00:33:59.999Z,2.72
2022-11-20T00:36:06.776Z,2.80
2022-11-20T00:38:08.517Z,2.20
2022-11-20T00:40:10.824Z,2.17
2022-11-20T00:42:12.539Z,2.40
2022-11-20T00:44:14.221Z,2.27
2022-11-20T00:46:18.640Z,1.95
2022-11-20T00:48:20.332Z,2.13
2022-11-20T00:50:22.082Z,2.08
2022-11-20T00:52:23.791Z,2.43
2022-11-20T00:54:25.508Z,2.60
2022-11-20T00:56:27.285Z,2.40
2022-11-20T00:58:37.890Z,2.47
2022-11-20T01:00:39.635Z,2.58
2022-11-20T01:02:41.381Z,2.43
2022-11-20T01:04:43.558Z,2.07
2022-11-20T01:06:45.281Z,2.45
2022-11-20T01:08:47.830Z,2.72
2022-11-20T01:10:49.533Z,2.60
2022-11-20T01:13:11.297Z,2.60
2022-11-20T01:15:13.046Z,2.35
2022-11-20T01:17:14.768Z,2.60
2022-11-20T01:19:22.393Z,2.65
2022-11-20T01:21:30.125Z,2.67
2022-11-20T01:23:36.979Z,2.50
2022-11-20T01:25:38.666Z,2.42
2022-11-20T01:27:40.379Z,2.28
2022-11-20T01:29:42.069Z,2.80
2022-11-20T01:31:44.315Z,2.80
2022-11-20T01:33:48.544Z,2.60
2022-11-20T01:35:50.566Z,3.00
2022-11-20T01:37:52.287Z,2.75
2022-11-20T01:39:53.945Z,2.58
2022-11-20T01:42:15.400Z,2.72
2022-11-20T01:44:21.253Z,2.70
2022-11-20T01:46:23.059Z,2.70
2022-11-20T01:48:29.566Z,3.03
2022-11-20T01:50:31.738Z,2.80
2022-11-20T01:52:45.638Z,3.17
2022-11-20T01:54:54.195Z,2.83
2022-11-20T01:56:59.593Z,2.65
2022-11-20T01:59:04.970Z,2.50
2022-11-20T02:01:06.755Z,2.55
2022-11-20T02:03:13.306Z,2.87
2022-11-20T02:05:36.414Z,2.80
2022-11-20T02:07:38.873Z,2.70
2022-11-20T02:09:40.654Z,2.80
2022-11-20T02:11:42.419Z,2.57
2022-11-20T02:13:44.220Z,2.50
2022-11-20T02:15:47.038Z,2.63
2022-11-20T02:17:49.432Z,2.60
2022-11-20T02:19:51.389Z,2.78
2022-11-20T02:21:55.872Z,2.60
2022-11-20T02:24:05.061Z,2.60
2022-11-20T02:26:11.677Z,2.78
2022-11-20T02:28:13.408Z,2.50
2022-11-20T02:30:15.199Z,3.10
2022-11-20T02:32:32.379Z,2.43
2022-11-20T02:34:34.156Z,2.83
2022-11-20T02:36:37.643Z,3.00
2022-11-20T02:38:39.408Z,3.10
2022-11-20T02:40:41.609Z,2.90
2022-11-20T02:42:43.384Z,2.70
2022-11-20T02:44:45.086Z,3.03
2022-11-20T02:46:47.178Z,2.53
2022-11-20T02:48:48.933Z,2.72
2022-11-20T02:50:50.605Z,2.87
2022-11-20T02:52:52.328Z,2.70
2022-11-20T02:54:54.448Z,2.75
2022-11-20T02:56:56.185Z,2.85
2022-11-20T02:58:57.947Z,2.73
2022-11-20T03:00:59.719Z,2.80
2022-11-20T03:03:01.500Z,2.90
2022-11-20T03:05:03.774Z,2.63
2022-11-20T03:07:05.626Z,2.88
2022-11-20T03:09:07.801Z,2.70
2022-11-20T03:11:09.584Z,2.83
2022-11-20T03:13:11.302Z,3.00
2022-11-20T03:15:13.033Z,2.90
2022-11-20T03:17:14.719Z,3.22
2022-11-20T03:19:16.449Z,2.83
2022-11-20T03:21:18.220Z,2.80
2022-11-20T03:23:19.907Z,3.47
2022-11-20T03:25:22.206Z,2.95
2022-11-20T03:27:23.922Z,2.83
2022-11-20T03:29:25.809Z,3.20
2022-11-20T03:31:33.418Z,2.90
2022-11-20T03:33:35.204Z,3.15
2022-11-20T03:35:37.099Z,3.27
2022-11-20T03:37:38.902Z,3.00
2022-11-20T03:39:40.658Z,3.10
2022-11-20T03:41:43.261Z,3.00
2022-11-20T03:45:51.008Z,3.10
2022-11-20T03:47:52.841Z,2.50
2022-11-20T03:49:54.775Z,2.83
2022-11-20T03:51:56.462Z,2.90
2022-11-20T03:54:00.219Z,2.75
2022-11-20T03:56:01.978Z,3.03
2022-11-20T03:58:03.692Z,2.90
2022-11-20T04:00:06.933Z,3.15
2022-11-20T04:02:08.693Z,2.70
2022-11-20T04:04:10.467Z,3.23
2022-11-20T04:06:19.381Z,2.58
2022-11-20T04:08:21.118Z,3.20
2022-11-20T04:10:22.796Z,2.93
2022-11-20T04:12:24.484Z,2.80
2022-11-20T04:14:26.360Z,2.47
2022-11-20T04:16:31.768Z,2.55
2022-11-20T04:18:34.008Z,2.80
2022-11-20T04:20:36.429Z,3.10
2022-11-20T04:22:38.132Z,3.05
2022-11-20T04:24:39.877Z,2.70
2022-11-20T04:26:42.057Z,3.20
2022-11-20T04:28:43.776Z,2.70
2022-11-20T04:30:45.646Z,3.07
2022-11-20T04:32:47.380Z,2.85
2022-11-20T04:34:49.063Z,2.70
2022-11-20T04:36:50.736Z,2.47
2022-11-20T04:39:04.342Z,2.80
2022-11-20T04:41:08.057Z,3.40
2022-11-20T04:43:09.798Z,2.70
2022-11-20T04:45:11.595Z,2.85
2022-11-20T04:47:13.293Z,2.40
2022-11-20T04:49:15.245Z,2.30
2022-11-20T04:51:16.944Z,2.70
2022-11-20T04:53:19.489Z,2.65
2022-11-20T04:55:22.315Z,2.83
2022-11-20T04:57:24.122Z,2.75
2022-11-20T04:59:25.868Z,2.83
2022-11-20T05:01:27.702Z,2.30
2022-11-20T05:03:29.664Z,2.83
2022-11-20T05:05:31.592Z,2.53
2022-11-20T05:07:33.358Z,2.58
2022-11-20T05:09:35.161Z,2.97
2022-11-20T05:11:36.885Z,3.13
2022-11-20T05:13:39.265Z,2.83
2022-11-20T05:15:41.113Z,2.78
2022-11-20T05:17:48.711Z,2.67
2022-11-20T05:19:53.127Z,2.70
2022-11-20T05:21:54.989Z,2.75
2022-11-20T05:23:56.747Z,2.55
2022-11-20T05:25:59.735Z,3.10
2022-11-20T05:28:01.572Z,2.83
2022-11-20T05:30:07.478Z,3.00
2022-11-20T05:32:10.668Z,2.78
2022-11-20T05:34:12.398Z,2.90
2022-11-20T05:36:15.534Z,2.90
2022-11-20T05:38:17.284Z,2.72
2022-11-20T05:40:19.059Z,3.30
2022-11-20T05:42:32.720Z,2.97
2022-11-20T05:44:34.432Z,3.28
2022-11-20T05:46:36.127Z,3.33
2022-11-20T05:48:39.058Z,3.42
2022-11-20T05:50:40.783Z,3.05
2022-11-20T05:52:42.533Z,2.97
2022-11-20T05:54:44.321Z,3.17
2022-11-20T05:56:46.086Z,3.22
2022-11-20T05:58:48.363Z,3.20
2022-11-20T06:00:50.110Z,3.53
2022-11-20T06:02:51.860Z,3.77
2022-11-20T06:04:53.558Z,3.50
2022-11-20T06:06:55.299Z,3.67
2022-11-20T06:08:57.376Z,3.57
2022-11-20T06:10:59.431Z,3.95
2022-11-20T06:13:01.203Z,3.60
2022-11-20T06:15:03.198Z,3.50
2022-11-20T06:17:04.902Z,3.53
2022-11-20T06:19:06.643Z,3.38
2022-11-20T06:21:14.090Z,3.30
2022-11-20T06:23:15.859Z,3.55
2022-11-20T06:25:17.626Z,3.40
2022-11-20T06:27:19.423Z,3.60
2022-11-20T06:29:21.498Z,3.13
2022-11-20T06:31:25.955Z,4.05
2022-11-20T06:33:28.145Z,3.30
2022-11-20T06:35:29.991Z,3.10
2022-11-20T06:37:31.820Z,3.33
2022-11-20T06:39:33.554Z,3.35
2022-11-20T06:41:35.247Z,3.50
2022-11-20T06:43:37.048Z,3.40
2022-11-20T06:45:39.106Z,3.40
2022-11-20T06:47:40.852Z,3.95
2022-11-20T06:49:42.844Z,3.20
2022-11-20T06:51:44.532Z,3.47
2022-11-20T06:53:46.510Z,3.33
2022-11-20T06:55:48.792Z,3.70
2022-11-20T06:57:55.745Z,3.42
2022-11-20T06:59:57.705Z,3.20
2022-11-20T07:01:59.377Z,3.10
2022-11-20T07:04:01.095Z,3.50
2022-11-20T07:06:04.084Z,3.10
2022-11-20T07:08:06.167Z,3.72
2022-11-20T07:10:08.331Z,3.75
2022-11-20T07:12:10.634Z,3.22
2022-11-20T07:14:12.401Z,3.20
2022-11-20T07:16:14.171Z,3.00
2022-11-20T07:18:15.904Z,3.40
2022-11-20T07:20:17.678Z,3.53
2022-11-20T07:22:19.412Z,3.27
2022-11-20T07:24:21.260Z,3.30
2022-11-20T07:26:22.957Z,3.28
2022-11-20T07:28:24.795Z,2.92
2022-11-20T07:30:30.538Z,2.97
2022-11-20T07:32:32.297Z,3.58
2022-11-20T07:34:34.113Z,3.80
2022-11-20T07:36:36.152Z,3.93
2022-11-20T07:38:39.109Z,3.30
2022-11-20T07:40:40.858Z,3.33
2022-11-20T07:42:53.165Z,3.90
2022-11-20T07:44:54.969Z,3.88
2022-11-20T07:46:56.728Z,3.10
2022-11-20T07:48:58.509Z,3.50
2022-11-20T07:51:00.251Z,3.60
2022-11-20T07:53:04.556Z,3.42
2022-11-20T07:55:07.425Z,3.10
2022-11-20T07:57:09.212Z,2.90
2022-11-20T07:59:12.784Z,3.37
2022-11-20T08:01:14.682Z,2.70
2022-11-20T08:03:21.651Z,3.30
2022-11-20T08:05:26.294Z,4.63
2022-11-20T08:07:28.042Z,7.50
2022-11-20T08:09:30.006Z,3.47
2022-11-20T08:11:50.552Z,3.58
2022-11-20T08:14:10.739Z,9.82
2022-11-20T08:16:12.566Z,4.10
2022-11-20T08:18:31.855Z,3.17
2022-11-20T08:20:35.416Z,2.97
2022-11-20T08:22:37.165Z,2.75
2022-11-20T08:24:39.063Z,3.23
2022-11-20T08:26:41.994Z,3.05
2022-11-20T08:28:44.281Z,2.63
2022-11-20T08:30:46.920Z,2.90
2022-11-20T08:34:50.348Z,2.60
2022-11-20T08:36:52.089Z,2.97
2022-11-20T08:38:55.820Z,3.13
2022-11-20T08:41:17.485Z,2.45
2022-11-20T08:43:19.267Z,2.80
2022-11-20T08:45:21.137Z,2.90
2022-11-20T08:47:23.089Z,2.50
2022-11-20T08:49:24.929Z,3.03
2022-11-20T08:51:26.753Z,3.15
2022-11-20T08:53:28.918Z,5.67
2022-11-20T08:55:30.688Z,2.45
2022-11-20T08:57:33.835Z,2.50
2022-11-20T09:00:05.662Z,2.70
2022-11-20T09:01:57.284Z,2.40
2022-11-20T09:04:00.533Z,2.10
2022-11-20T09:06:06.419Z,2.55
2022-11-20T09:08:08.118Z,2.65
2022-11-20T09:10:23.673Z,2.05
2022-11-20T09:12:25.987Z,2.33
2022-11-20T09:14:30.066Z,2.60
2022-11-20T09:16:31.779Z,2.20
2022-11-20T09:18:34.869Z,1.95
2022-11-20T09:20:37.247Z,2.17
2022-11-20T09:22:41.517Z,2.17
2022-11-20T09:24:43.780Z,2.17
2022-11-20T09:26:45.676Z,2.60
2022-11-20T09:28:47.437Z,2.40
2022-11-20T09:30:49.233Z,2.10
2022-11-20T09:32:50.973Z,2.10
2022-11-20T09:34:52.670Z,2.23
2022-11-20T09:36:54.377Z,1.90
2022-11-20T09:38:57.601Z,2.05
2022-11-20T09:41:04.990Z,1.77
2022-11-20T09:43:18.173Z,3.63
2022-11-20T09:45:42.783Z,2.55
2022-11-20T09:48:23.550Z,2.50
2022-11-20T09:50:43.655Z,3.40
2022-11-20T09:53:00.100Z,2.90
2022-11-20T09:55:04.682Z,2.10
2022-11-20T09:57:20.160Z,2.00
2022-11-20T09:59:27.336Z,1.77
2022-11-20T10:01:34.164Z,2.17
2022-11-20T10:03:42.854Z,2.38
2022-11-20T10:05:53.108Z,1.80
2022-11-20T10:08:25.888Z,1.58
2022-11-20T10:10:42.606Z,1.80
2022-11-20T10:13:21.298Z,1.67
2022-11-20T10:15:29.873Z,1.55
2022-11-20T10:18:09.518Z,1.75
2022-11-20T10:20:49.035Z,1.52
2022-11-20T10:23:26.089Z,1.38
2022-11-20T10:25:44.616Z,1.50
2022-11-20T10:28:21.401Z,1.52
2022-11-20T10:30:25.947Z,1.60
2022-11-20T10:32:36.767Z,1.60
2022-11-20T10:35:00.671Z,1.50
2022-11-20T10:37:11.748Z,1.90
2022-11-20T10:40:03.126Z,1.67
2022-11-20T10:42:25.849Z,1.70
2022-11-20T10:44:56.738Z,1.83
2022-11-20T10:47:19.923Z,1.40
2022-11-20T10:49:30.950Z,1.55
2022-11-20T10:51:53.335Z,1.20
2022-11-20T10:54:38.299Z,1.20
2022-11-20T10:57:09.723Z,1.45
2022-11-20T10:59:48.288Z,1.70
2022-11-20T11:01:50.161Z,1.40
2022-11-20T11:03:58.134Z,1.10
2022-11-20T11:06:04.788Z,1.42
2022-11-20T11:08:18.373Z,1.10
2022-11-20T11:10:25.462Z,1.10
2022-11-20T11:12:29.582Z,1.00
2022-11-20T11:14:42.318Z,1.10
2022-11-20T11:16:55.441Z,1.25
2022-11-20T11:19:08.703Z,1.23
2022-11-20T11:21:10.496Z,1.15
2022-11-20T11:23:27.910Z,1.30
2022-11-20T11:25:36.854Z,1.40
2022-11-20T11:27:48.234Z,1.20
2022-11-20T11:29:50.164Z,1.27
2022-11-20T11:31:51.954Z,1.05
2022-11-20T11:34:15.055Z,1.40
2022-11-20T11:36:25.969Z,1.40
2022-11-20T11:38:56.462Z,1.45
2022-11-20T11:41:14.813Z,1.70
2022-11-20T11:43:46.047Z,1.98
2022-11-20T11:45:57.866Z,1.33
2022-11-20T11:48:12.795Z,1.60
2022-11-20T11:50:26.401Z,1.40
2022-11-20T11:52:29.955Z,1.58
2022-11-20T11:54:41.030Z,1.50
2022-11-20T11:56:42.946Z,1.10
2022-11-20T11:58:56.476Z,1.35
2022-11-20T12:01:21.580Z,1.40
2022-11-20T12:03:35.371Z,8.05
2022-11-20T12:05:49.674Z,1.85
2022-11-20T12:08:18.105Z,19.23
2022-11-20T12:10:35.894Z,9.90
2022-11-20T12:12:43.778Z,3.40
2022-11-20T12:14:50.950Z,50.50
2022-11-20T12:16:54.260Z,62.67
2022-11-20T12:18:56.067Z,62.45
2022-11-20T12:21:18.445Z,28.52
2022-11-20T12:23:43.074Z,7.27
2022-11-20T12:25:49.817Z,11.45
2022-11-20T12:27:54.320Z,2.70
2022-11-20T12:30:03.911Z,1.75
2022-11-20T12:32:19.465Z,1.70
2022-11-20T12:34:32.127Z,1.40
2022-11-20T12:36:56.976Z,1.25
2022-11-20T12:39:03.754Z,1.90
2022-11-20T12:42:18.136Z,1.60
2022-11-20T12:45:00.531Z,1.65
2022-11-20T12:47:28.708Z,1.38
2022-11-20T12:49:44.173Z,1.80
2022-11-20T12:52:03.628Z,1.60
2022-11-20T12:54:33.312Z,1.80
2022-11-20T12:56:43.902Z,1.80
2022-11-20T12:58:54.575Z,2.00
2022-11-20T13:01:10.421Z,1.70
2022-11-20T13:03:53.665Z,1.70
2022-11-20T13:06:04.272Z,1.80
2022-11-20T13:08:16.301Z,1.67
2022-11-20T13:10:22.229Z,2.15
2022-11-20T13:12:37.937Z,2.00
2022-11-20T13:14:55.094Z,2.03
2022-11-20T13:17:06.366Z,1.80
2022-11-20T13:19:14.253Z,1.60
2022-11-20T13:21:21.795Z,1.85
2022-11-20T13:23:28.600Z,1.70
2022-11-20T13:25:35.984Z,1.75
2022-11-20T13:27:48.756Z,1.67
2022-11-20T13:30:13.981Z,1.92
2022-11-20T13:32:17.090Z,1.65
2022-11-20T13:34:27.764Z,2.00
2022-11-20T13:36:31.199Z,1.85
2022-11-20T13:38:47.280Z,2.30
2022-11-20T13:40:56.665Z,1.90
2022-11-20T13:43:09.486Z,1.92
2022-11-20T13:45:30.590Z,2.10
2022-11-20T13:47:32.333Z,1.95
2022-11-20T13:49:49.093Z,2.15
2022-11-20T13:51:57.320Z,2.72
2022-11-20T13:54:19.848Z,1.85
2022-11-20T13:56:38.889Z,1.98
2022-11-20T13:58:46.742Z,2.10
2022-11-20T14:01:18.071Z,2.63
2022-11-20T14:03:44.175Z,2.17
2022-11-20T14:06:28.199Z,1.88
2022-11-20T14:08:41.118Z,2.22
2022-11-20T14:10:42.841Z,2.10
2022-11-20T14:12:44.568Z,2.00
2022-11-20T14:14:55.358Z,1.65
2022-11-20T14:17:17.969Z,1.67
2022-11-20T14:19:22.661Z,1.75
2022-11-20T14:21:30.654Z,2.00
2022-11-20T14:23:32.416Z,1.73
2022-11-20T14:25:34.259Z,1.90
2022-11-20T14:27:39.801Z,1.90
2022-11-20T14:29:42.569Z,1.60
2022-11-20T14:31:53.844Z,1.55
2022-11-20T14:33:56.540Z,1.73
2022-11-20T14:35:59.767Z,1.70
2022-11-20T14:38:03.602Z,1.85
2022-11-20T14:40:23.426Z,2.03
2022-11-20T14:42:27.612Z,1.80
2022-11-20T14:44:34.261Z,2.10
2022-11-20T14:46:36.525Z,2.30
2022-11-20T14:48:51.141Z,2.20
2022-11-20T14:50:52.900Z,2.40
2022-11-20T14:52:56.199Z,1.70
2022-11-20T14:55:02.080Z,1.88
2022-11-20T14:57:04.951Z,1.88
2022-11-20T14:59:06.896Z,1.85
2022-11-20T15:01:13.876Z,1.60
2022-11-20T15:03:17.517Z,1.45
2022-11-20T15:05:22.180Z,1.52
2022-11-20T15:07:38.290Z,1.38
2022-11-20T15:09:40.061Z,1.25
2022-11-20T15:12:03.022Z,1.15
2022-11-20T15:14:07.637Z,1.02
2022-11-20T15:16:24.158Z,1.30
2022-11-20T15:18:42.573Z,1.40
2022-11-20T15:20:44.737Z,1.25
2022-11-20T15:22:46.530Z,1.20
2022-11-20T15:24:48.295Z,1.10
2022-11-20T15:26:50.072Z,1.30
2022-11-20T15:28:52.017Z,1.00
2022-11-20T15:30:53.696Z,1.08
2022-11-20T15:32:55.404Z,1.15
2022-11-20T15:34:57.119Z,1.17
2022-11-20T15:36:58.851Z,1.10
2022-11-20T15:39:00.540Z,1.20
2022-11-20T15:41:02.352Z,3.28
2022-11-20T15:43:09.706Z,10.90
2022-11-20T15:45:14.573Z,26.08
2022-11-20T15:47:18.153Z,40.53
2022-11-20T15:49:19.953Z,24.00
2022-11-20T15:51:27.565Z,3.60
2022-11-20T15:53:29.385Z,4.43
2022-11-20T15:55:31.764Z,2.00
2022-11-20T15:57:33.441Z,1.60
2022-11-20T15:59:37.863Z,3.15
2022-11-20T16:01:39.625Z,2.00
2022-11-20T16:03:41.933Z,3.10
2022-11-20T16:05:44.030Z,1.55
2022-11-20T16:07:45.823Z,1.83
2022-11-20T16:09:47.583Z,1.90
2022-11-20T16:11:49.295Z,1.70
2022-11-20T16:14:09.873Z,1.92
2022-11-20T16:16:29.652Z,1.50
2022-11-20T16:18:31.685Z,1.60
2022-11-20T16:20:33.563Z,2.33
2022-11-20T16:22:35.299Z,2.20
2022-11-20T16:24:37.027Z,1.77
2022-11-20T16:26:38.706Z,1.77
2022-11-20T16:28:41.004Z,3.13
2022-11-20T16:30:42.834Z,4.15
2022-11-20T16:32:44.640Z,4.33
2022-11-20T16:34:46.375Z,3.33
2022-11-20T16:36:48.173Z,3.28
2022-11-20T16:38:58.153Z,3.10
2022-11-20T16:41:03.621Z,2.70
2022-11-20T16:43:14.686Z,3.03
2022-11-20T16:45:21.510Z,2.80
2022-11-20T16:47:26.537Z,2.30
2022-11-20T16:49:28.301Z,2.05
2022-11-20T16:51:31.590Z,2.17
2022-11-20T16:53:34.235Z,1.85
2022-11-20T16:57:37.831Z,2.10
2022-11-20T16:59:39.668Z,2.83
2022-11-20T17:01:43.123Z,3.22
2022-11-20T17:03:46.429Z,2.90
2022-11-20T17:05:48.194Z,3.25
2022-11-20T17:07:49.954Z,3.67
2022-11-20T17:09:51.753Z,3.30
2022-11-20T17:11:53.561Z,3.10
2022-11-20T17:13:56.898Z,3.37
2022-11-20T17:16:03.113Z,3.08
2022-11-20T17:18:04.821Z,3.45
2022-11-20T17:20:07.073Z,4.20
2022-11-20T17:22:08.810Z,4.05
2022-11-20T17:24:12.860Z,3.72
2022-11-20T17:26:17.821Z,4.57
2022-11-20T17:28:19.531Z,4.50
2022-11-20T17:30:21.227Z,4.65
2022-11-20T17:32:23.087Z,4.30
2022-11-20T17:34:25.294Z,4.82
2022-11-20T17:36:28.713Z,3.95
2022-11-20T17:38:30.655Z,4.32
2022-11-20T17:40:32.479Z,4.82
2022-11-20T17:42:36.975Z,5.50
2022-11-20T17:44:38.845Z,5.47
2022-11-20T17:46:41.062Z,5.87
2022-11-20T17:48:44.384Z,5.50
2022-11-20T17:50:46.074Z,5.32
2022-11-20T17:52:47.843Z,5.93
2022-11-20T17:54:49.617Z,5.60
2022-11-20T17:57:09.949Z,6.00
2022-11-20T17:59:13.325Z,6.38
2022-11-20T18:01:15.776Z,5.75
2022-11-20T18:03:17.498Z,6.35
2022-11-20T18:05:19.309Z,5.80
2022-11-20T18:07:21.079Z,6.38
2022-11-20T18:09:22.939Z,7.90
2022-11-20T18:11:27.093Z,8.63
2022-11-20T18:13:48.802Z,7.55
2022-11-20T18:15:50.926Z,9.68
2022-11-20T18:17:52.767Z,9.50
2022-11-20T18:20:26.753Z,9.55
2022-11-20T18:22:18.222Z,9.98
2022-11-20T18:24:20.150Z,10.70
2022-11-20T18:26:22.290Z,10.07
2022-11-20T18:28:24.120Z,9.57
2022-11-20T18:30:26.190Z,10.45
2022-11-20T18:32:27.943Z,9.13
2022-11-20T18:34:30.408Z,8.13
2022-11-20T18:36:32.862Z,8.23
2022-11-20T18:38:34.577Z,7.65
2022-11-20T18:40:37.217Z,7.43
2022-11-20T18:45:00.392Z,6.90
2022-11-20T18:47:04.873Z,6.70
2022-11-20T18:49:09.665Z,6.45
2022-11-20T18:51:14.446Z,6.93
2022-11-20T18:53:16.155Z,6.80
2022-11-20T18:55:17.971Z,6.83
2022-11-20T18:57:22.069Z,6.82
2022-11-20T18:59:23.821Z,7.25
2022-11-20T19:01:25.804Z,6.80
2022-11-20T19:03:27.898Z,6.60
2022-11-20T19:05:29.629Z,6.00
2022-11-20T19:07:31.664Z,5.33
2022-11-20T19:09:33.741Z,5.97
2022-11-20T19:11:36.357Z,6.28
2022-11-20T19:15:40.424Z,5.25
2022-11-20T19:17:42.140Z,5.57
2022-11-20T19:19:44.480Z,5.30
2022-11-20T19:21:46.420Z,5.65
2022-11-20T19:23:53.155Z,4.68
2022-11-20T19:25:59.414Z,4.53
2022-11-20T19:28:01.163Z,4.57
2022-11-20T19:30:03.763Z,4.33
2022-11-20T19:32:05.898Z,5.10
2022-11-20T19:34:08.279Z,3.95
2022-11-20T19:36:21.073Z,3.97
2022-11-20T19:38:23.187Z,4.38
2022-11-20T19:40:24.933Z,4.63
2022-11-20T19:42:26.695Z,4.50
2022-11-20T19:44:28.477Z,3.40
2022-11-20T19:46:32.266Z,3.85
2022-11-20T19:48:35.385Z,3.83
2022-11-20T19:50:37.133Z,4.25
2022-11-20T19:52:38.893Z,3.63
2022-11-20T19:54:40.661Z,3.80
2022-11-20T19:56:42.455Z,4.30
2022-11-20T19:58:44.429Z,5.32
2022-11-20T20:00:46.126Z,6.15
2022-11-20T20:02:47.857Z,6.77
2022-11-20T20:04:49.519Z,7.57
2022-11-20T20:06:51.353Z,8.30
2022-11-20T20:09:17.078Z,7.57
2022-11-20T20:11:20.956Z,7.63
2022-11-20T20:13:22.768Z,7.60
2022-11-20T20:15:24.606Z,6.18
2022-11-20T20:17:26.327Z,7.65
2022-11-20T20:19:28.275Z,7.60
2022-11-20T20:21:31.604Z,6.50
2022-11-20T20:23:33.869Z,5.97
2022-11-20T20:25:38.823Z,4.30
2022-11-20T20:27:40.538Z,4.15
2022-11-20T20:29:42.247Z,3.97
2022-11-20T20:31:44.007Z,4.07
2022-11-20T20:33:45.981Z,4.50
2022-11-20T20:35:47.807Z,3.35
2022-11-20T20:37:49.536Z,3.78
2022-11-20T20:39:51.355Z,3.30
2022-11-20T20:41:53.040Z,4.07
2022-11-20T20:44:13.807Z,3.67
2022-11-20T20:46:15.604Z,3.55
2022-11-20T20:48:19.499Z,3.97
2022-11-20T20:50:21.970Z,5.80
2022-11-20T20:52:27.282Z,5.85
2022-11-20T20:54:34.097Z,5.70
2022-11-20T20:56:36.162Z,6.30
2022-11-20T20:58:37.950Z,6.60
2022-11-20T21:00:39.976Z,7.47
2022-11-20T21:02:41.708Z,7.30
2022-11-20T21:04:43.448Z,7.83
2022-11-20T21:06:45.179Z,7.57
2022-11-20T21:08:46.971Z,7.67
2022-11-20T21:10:49.688Z,7.72
2022-11-20T21:12:51.467Z,6.38
2022-11-20T21:14:53.189Z,5.00
2022-11-20T21:16:54.930Z,4.20
2022-11-20T21:18:56.644Z,4.20
2022-11-20T21:21:17.486Z,4.10
2022-11-20T21:23:19.509Z,3.85
2022-11-20T21:25:21.240Z,3.83
2022-11-20T21:27:22.957Z,3.87
2022-11-20T21:29:26.357Z,4.40
2022-11-20T21:31:29.887Z,4.40
2022-11-20T21:33:42.854Z,3.67
2022-11-20T21:37:46.238Z,3.08
2022-11-20T21:39:51.880Z,3.93
2022-11-20T21:41:53.587Z,3.75
2022-11-20T21:44:28.993Z,2.80
2022-11-20T21:46:17.765Z,3.28
2022-11-20T21:48:19.538Z,2.75
2022-11-20T21:50:22.229Z,2.90
2022-11-20T21:52:23.987Z,2.72
2022-11-20T21:54:26.377Z,2.60
2022-11-20T21:58:30.293Z,2.17
2022-11-20T22:00:32.002Z,2.10
2022-11-20T22:02:34.585Z,1.92
2022-11-20T22:04:36.316Z,1.97
2022-11-20T22:06:38.003Z,1.70
2022-11-20T22:08:39.723Z,1.97
2022-11-20T22:10:41.429Z,1.67
2022-11-20T22:12:43.137Z,1.77
2022-11-20T22:14:45.821Z,1.70
2022-11-20T22:18:54.705Z,2.00
2022-11-20T22:20:56.389Z,1.90
2022-11-20T22:22:58.096Z,1.75
2022-11-20T22:24:59.833Z,1.93
2022-11-20T22:27:01.534Z,2.00
2022-11-20T22:29:03.338Z,1.77
2022-11-20T22:31:07.519Z,2.00
2022-11-20T22:33:13.600Z,1.80
2022-11-20T22:35:15.837Z,1.80
2022-11-20T22:37:17.674Z,1.93
2022-11-20T22:39:19.504Z,2.17
2022-11-20T22:41:24.971Z,2.00
2022-11-20T22:43:26.679Z,2.70
2022-11-20T22:45:28.412Z,1.70
2022-11-20T22:47:30.117Z,2.33
2022-11-20T22:49:31.887Z,2.03
2022-11-20T22:51:41.370Z,2.03
2022-11-20T22:53:44.346Z,2.28
2022-11-20T22:55:49.511Z,2.08
2022-11-20T22:57:51.203Z,2.00
2022-11-20T22:59:52.941Z,2.00
2022-11-20T23:01:54.633Z,2.15
2022-11-20T23:03:59.002Z,2.55
2022-11-20T23:06:01.152Z,2.20
2022-11-20T23:08:02.862Z,2.10
2022-11-20T23:10:06.639Z,2.00
2022-11-20T23:12:08.362Z,1.80
2022-11-20T23:14:15.391Z,2.17
2022-11-20T23:16:19.813Z,1.90
2022-11-20T23:18:21.931Z,2.30
2022-11-20T23:20:23.653Z,1.60
2022-11-20T23:22:25.333Z,1.70
2022-11-20T23:24:27.341Z,1.70
2022-11-20T23:26:32.461Z,1.70
2022-11-20T23:28:34.479Z,1.60
2022-11-20T23:30:36.249Z,1.60
2022-11-20T23:32:37.975Z,1.67
2022-11-20T23:34:39.712Z,1.40
2022-11-20T23:36:41.443Z,1.63
2022-11-20T23:38:43.135Z,1.40
2022-11-20T23:40:51.780Z,1.50
2022-11-20T23:43:12.280Z,1.48
2022-11-20T23:45:14.047Z,1.20
2022-11-20T23:47:15.738Z,1.50
2022-11-20T23:49:17.483Z,1.20
2022-11-20T23:51:19.329Z,1.00
2022-11-20T23:53:22.080Z,1.30
2022-11-20T23:55:23.767Z,1.20
2022-11-20T23:57:25.504Z,1.00
2022-11-20T23:59:27.236Z,1.10
